• Join FlightAware (Why Join?)
  • Login
  • US Flag 
10:40AM EST


 

Airport Tracker/Info


-or-


 

Live Flight TrackerFlight Track Log ✈ BJS542 ✈ 30-Apr-2013 ✈ KPBI - KORD

Flight Track Log - Related Links

Times and Time Zones

All times are in EDT time to prevent confusion due to time zone crossing. See the BJS542 flight status page for this flight to view local times or setup timezone preferences in your user account.

Time Position Orientation Groundspeed Altitude Reporting Facility
EDT Latitude Longitude Course Direction KTS MPH feet Rate Location/Type
08:40AM 26.6917 -80.0119 336° Northwest 231 266 4,300  Level Miami Center
08:41AM 26.7567 -80.0067 North 268 308 7,400 3,300 Climbing Miami Center
08:42AM 26.7883 -80.0889 293° West 265 305 10,900 3,000 Climbing Miami Center
08:43AM 26.8114 -80.1689 288° West 285 328 13,400 1,560 Climbing Miami Center
08:44AM 26.8444 -80.2767 289° West 331 381 14,100 840 Climbing Miami Center
08:45AM 27.0429 -80.4131 336° Northwest  Level FlightAware Approximate
08:45AM 26.9094 -80.3508 315° West 341 392 15,100  Level Miami Center
08:46AM 27.0064 -80.4006 335° Northwest 357 411 17,100 2,100 Climbing Miami Center
08:47AM 27.1031 -80.4642 330° Northwest 378 435 19,400 2,400 Climbing Miami Center
08:48AM 27.1997 -80.5231 332° Northwest 391 450 22,000 2,580 Climbing Miami Center
08:49AM 27.2964 -80.5800 332° Northwest 396 456 24,600 2,460 Climbing Miami Center
08:50AM 27.3911 -80.6344 333° Northwest 390 449 27,000 2,100 Climbing Miami Center
08:51AM 27.4875 -80.6936 331° Northwest 390 449 28,800 1,740 Climbing Miami Center
08:52AM 27.5883 -80.7486 334° Northwest 390 449 30,500 1,500 Climbing Miami Center
08:53AM 27.6731 -80.7844 339° North 390 449 31,900 1,680 Climbing Miami Center
08:54AM 27.7928 -80.8331 340° North 408 470 33,900 1,800 Climbing Miami Center
08:55AM 27.9042 -80.8817 339° North 408 470 35,600 1,680 Climbing Miami Center
08:56AM 28.0114 -80.9253 340° North 414 476 37,300 1,320 Climbing Miami Center
08:57AM 28.1144 -80.9692 339° North 408 470 38,300 900 Climbing Miami Center
08:58AM 28.2197 -81.0153 339° North 408 470 39,200 720 Climbing Miami Center
09:00AM 28.4297 -81.1081 339° North 426 490 40,400 600 Climbing Jacksonville Center
09:01AM 28.5264 -81.1511 339° North 426 490 41,000 300 Climbing Jacksonville Center
09:02AM 28.6375 -81.1989 339° North 426 490 41,000  Level Jacksonville Center
09:03AM 28.7531 -81.2492 339° North 426 490 41,000  Level Jacksonville Center
09:04AM 28.8683 -81.2969 340° North 436 502 41,000  Level Jacksonville Center
09:05AM 28.9836 -81.3425 341° North 436 502 41,000  Level Jacksonville Center
09:06AM 29.1031 -81.3836 343° North 436 502 41,000  Level Jacksonville Center
09:07AM 29.2289 -81.4292 342° North 436 502 41,000  Level Jacksonville Center
09:08AM 29.3442 -81.4703 343° North 436 502 41,000  Level Jacksonville Center
09:09AM 29.4594 -81.5092 344° North 431 496 41,000  Level Jacksonville Center
09:10AM 29.5767 -81.5481 344° North 431 496 41,000  Level Jacksonville Center
09:11AM 29.6919 -81.5872 344° North 431 496 41,000  Level Jacksonville Center
09:12AM 29.8114 -81.6286 343° North 431 496 41,000  Level Jacksonville Center
09:13AM 29.9244 -81.6681 343° North 431 496 41,000  Level Jacksonville Center
09:14AM 30.0417 -81.7072 344° North 436 502 41,000  Level Jacksonville Center
09:15AM 30.1592 -81.7467 344° North 436 502 41,000  Level Jacksonville Center
09:16AM 30.2783 -81.7886 343° North 441 507 41,000  Level Jacksonville Center
09:17AM 30.3956 -81.8281 344° North 441 507 41,000  Level Jacksonville Center
09:18AM 30.5108 -81.8703 342° North 446 513 41,000  Level Jacksonville Center
09:19AM 30.6156 -81.9103 342° North 435 501 41,000  Level Jacksonville Center
09:20AM 30.7308 -81.9525 343° North 435 501 41,000  Level Jacksonville Center
09:21AM 30.8481 -81.9925 344° North 435 501 41,000  Level Jacksonville Center
09:22AM 30.9631 -82.0350 342° North 435 501 41,000  Level Jacksonville Center
09:23AM 31.0803 -82.0775 343° North 435 501 41,000  Level Jacksonville Center
09:24AM 31.1975 -82.1203 343° North 435 501 41,000  Level Jacksonville Center
09:25AM 31.3147 -82.1606 344° North 440 506 41,000  Level Jacksonville Center
09:26AM 31.4339 -82.2011 344° North 440 506 41,000  Level Jacksonville Center
09:28AM 31.7092 -82.2983 343° North 440 506 41,000  Level Atlanta Center
09:29AM 31.8289 -82.3425 343° North 440 506 41,000  Level Atlanta Center
09:30AM 31.9442 -82.3844 343° North 440 506 41,000  Level Atlanta Center
09:31AM 32.0639 -82.4286 343° North 445 512 41,000  Level Atlanta Center
09:32AM 32.1811 -82.4708 343° North 445 512 41,000  Level Atlanta Center
09:33AM 32.2839 -82.5083 343° North 435 501 41,000  Level Atlanta Center
09:34AM 32.4033 -82.5528 343° North 434 499 41,000  Level Atlanta Center
09:35AM 32.5208 -82.5953 343° North 434 499 41,000  Level Atlanta Center
09:36AM 32.6403 -82.6353 344° North 439 505 41,000  Level Atlanta Center
09:37AM 32.7597 -82.6853 341° North 444 511 41,000  Level Atlanta Center
09:38AM 32.8772 -82.7328 341° North 444 511 41,000  Level Atlanta Center
09:39AM 32.9944 -82.7758 343° North 444 511 41,000  Level Atlanta Center
09:40AM 33.1139 -82.8186 343° North 444 511 41,000  Level Atlanta Center
09:41AM 33.2292 -82.8617 343° North 444 511 41,000  Level Atlanta Center
09:42AM 33.3611 -82.9097 343° North 444 511 41,000  Level Atlanta Center
09:43AM 33.4825 -82.9503 344° North 444 511 41,000  Level Atlanta Center
09:44AM 33.5978 -82.9964 342° North 439 505 41,000  Level Atlanta Center
09:45AM 33.7172 -83.0422 342° North 447 514 41,000  Level Atlanta Center
09:46AM 33.8344 -83.0861 343° North 442 509 41,000  Level Atlanta Center
09:47AM 33.9558 -83.1322 343° North 449 517 41,000  Level Atlanta Center
09:48AM 34.0708 -83.1761 342° North 444 511 41,000  Level Atlanta Center
09:49AM 34.1922 -83.2225 342° North 444 511 41,000  Level Atlanta Center
09:50AM 34.3136 -83.2692 342° North 444 511 41,000  Level Atlanta Center
09:51AM 34.4183 -83.3086 343° North 444 511 41,000  Level Atlanta Center
09:52AM 34.5375 -83.3553 342° North 444 511 41,000  Level Atlanta Center
09:53AM 34.6544 -83.3975 343° North 437 503 41,000  Level Atlanta Center
09:54AM 34.7694 -83.4497 340° North 442 509 41,000  Level Atlanta Center
09:55AM 34.8844 -83.4944 342° North 442 509 41,000  Level Atlanta Center
09:56AM 35.0036 -83.5367 344° North 442 509 41,000  Level Atlanta Center
09:57AM 35.1208 -83.5842 342° North 442 509 41,000  Level Atlanta Center
09:58AM 35.2397 -83.6319 342° North 442 509 41,000  Level Atlanta Center
09:59AM 35.3611 -83.6797 342° North 442 509 41,000  Level Atlanta Center
10:00AM 35.4822 -83.7275 342° North 447 514 41,000  Level Atlanta Center
10:01AM 35.6033 -83.7731 343° North 447 514 41,000  Level Atlanta Center
10:02AM 35.7389 -83.8314 341° North 453 521 41,000  Level Atlanta Center
10:03AM 35.8622 -83.8800 342° North 458 527 41,000  Level Atlanta Center
10:04AM 35.9872 -83.9078 350° North 458 527 41,000  Level Atlanta Center
10:06AM 36.1736 -83.9342 353° North 469 540 41,000  Level Indianapolis Center
10:07AM 36.3294 -83.9564 353° North 470 541 41,000  Level Indianapolis Center
10:08AM 36.4592 -83.9747 354° North 471 542 41,000  Level Indianapolis Center
10:09AM 36.5958 -83.9972 352° North 469 540 41,000  Level Indianapolis Center
10:10AM 36.7244 -84.0164 353° North 463 533 41,000  Level Indianapolis Center
10:11AM 36.8525 -84.0356 353° North 462 532 41,000  Level Indianapolis Center
10:12AM 36.9817 -84.0542 353° North 464 534 41,000  Level Indianapolis Center
10:13AM 37.1086 -84.0731 353° North 458 527 41,000  Level Indianapolis Center
10:14AM 37.2381 -84.0933 353° North 464 534 41,000  Level Indianapolis Center
10:15AM 37.3867 -84.1153 353° North 460 529 41,000  Level Indianapolis Center
10:16AM 37.5125 -84.1347 353° North 454 522 41,000  Level Indianapolis Center
10:17AM 37.6386 -84.1547 353° North 454 522 41,000  Level Indianapolis Center
10:18AM 37.7619 -84.1747 353° North 447 514 41,000  Level Indianapolis Center
10:19AM 37.8869 -84.1928 353° North 450 518 41,000  Level Indianapolis Center
10:20AM 38.0094 -84.2281 347° North 450 518 41,000  Level Indianapolis Center
10:21AM 38.1531 -84.2700 347° North 454 522 41,000  Level Indianapolis Center
10:22AM 38.2750 -84.3086 346° North 451 519 41,000  Level Indianapolis Center
10:23AM 38.3956 -84.3469 346° North 447 514 41,000  Level Indianapolis Center
10:24AM 38.5158 -84.3839 346° North 443 510 41,000  Level Indianapolis Center
10:25AM 38.6358 -84.4222 346° North 442 509 41,000  Level Indianapolis Center
10:26AM 38.7622 -84.4619 346° North 445 512 41,000  Level Indianapolis Center
10:27AM 38.8839 -84.5006 346° North 446 513 41,000  Level Indianapolis Center
10:28AM 39.0056 -84.5383 346° North 443 510 41,000  Level Indianapolis Center
10:29AM 39.1272 -84.5781 346° North 446 513 41,000  Level Indianapolis Center
10:30AM 39.2692 -84.6247 346° North 447 514 41,000  Level Indianapolis Center
10:31AM 39.3908 -84.6628 346° North 445 512 41,000  Level Indianapolis Center
10:32AM 39.5111 -84.7014 346° North 440 506 41,000  Level Indianapolis Center
10:34AM 39.6322 -84.7408 346° North 442 509 41,000  Level Indianapolis Center
10:35AM 39.7539 -84.7808 346° North 445 512 41,000 -300 Level Indianapolis Center
10:36AM 39.8769 -84.8217 346° North 448 516 40,500 -780 Descending Indianapolis Center
10:37AM 39.9978 -84.8603 346° North 444 511 39,400 -1,140 Descending Indianapolis Center
10:38AM 40.1153 -84.8983 346° North 433 498 38,200 -1,380 Descending Indianapolis Center
10:39AM 40.2300 -84.9375 345° North 423 487 36,600 -1,800 Descending Indianapolis Center
10:40AM 40.3733 -84.9853 346° North 445 512 34,500 -1,320 Descending Indianapolis Center
10:41AM 40.4989 -85.0258 346° North 456 525 34,000 -300 Descending Indianapolis Center
10:42AM 40.6203 -85.0669 346° North 449 517 34,000  Level Indianapolis Center
10:42AM 40.6528 -85.0767 347° North 448 516 34,000  Level Chicago Center
10:43AM 40.7711 -85.1161 346° North 441 507 34,000 -480 Level Chicago Center
10:44AM 40.8900 -85.1572 345° North 442 509 33,100 -960 Descending Chicago Center
10:45AM 41.0039 -85.2331 333° Northwest 459 528 32,100 -1,080 Descending Chicago Center
10:46AM 41.0936 -85.3636 312° West 469 540 30,900 -1,680 Descending Chicago Center
10:47AM 41.1550 -85.5247 297° West 495 570 28,700 -2,340 Descending Chicago Center
10:48AM 41.1992 -85.6869 290° West 469 540 26,100 -1,800 Descending Chicago Center
10:49AM 41.2375 -85.8458 288° West 453 521 25,100 -660 Descending Chicago Center
10:50AM 41.2853 -86.0342 289° West 445 512 24,800 -840 Descending Chicago Center
10:51AM 41.3247 -86.1908 289° West 445 512 23,400 -1,440 Descending Chicago Center
10:52AM 41.3608 -86.3411 288° West 426 490 21,900 -1,500 Descending Chicago Center
10:53AM 41.3975 -86.4839 289° West 406 467 20,300 -1,500 Descending Chicago Center
10:54AM 41.4314 -86.6203 288° West 391 450 18,900 -1,500 Descending Chicago Center
10:55AM 41.4678 -86.7714 288° West 384 442 17,300 -1,560 Descending Chicago Center
10:56AM 41.5003 -86.9069 288° West 385 443 15,800 -1,440 Descending Chicago Center
10:57AM 41.5328 -87.0383 288° West 378 435 14,400 -1,560 Descending Chicago Center
10:58AM 41.5500 -87.1333 284° West 367 422 13,300 -1,620 Descending Chicago TRACON
10:59AM 41.5833 -87.2500 291° West 367 422 12,000 -1,440 Descending Chicago TRACON
11:00AM 41.6500 -87.3500 312° West 351 404 10,500 -1,320 Descending Chicago TRACON
11:01AM 41.6794 -87.4042 306° West 348 400 10,000 -360 Descending Chicago Center
11:02AM 41.7383 -87.5019 309° West 343 395 10,000 -420 Level Chicago Center
11:03AM 41.7878 -87.5853 309° West 287 330 9,200 -1,200 Descending Chicago Center
11:03AM 41.8167 -87.6333 309° West 269 310 8,100 -1,440 Descending Chicago TRACON
11:04AM 41.8667 -87.7167 309° West 255 293 7,000 -600 Descending Chicago TRACON
11:05AM 41.9167 -87.7500 334° Northwest 234 269 7,000  Level Chicago TRACON
11:06AM 41.9667 -87.7333 14° North 211 243 7,000 -480 Level Chicago TRACON
11:07AM 42.0333 -87.7000 20° North 225 259 6,200 -1,020 Descending Chicago TRACON
11:08AM 42.0667 -87.6500 48° Northeast 230 265 5,000 -1,080 Descending Chicago TRACON
11:09AM 42.1167 -87.6500 360° North 195 224 4,100 -600 Descending Chicago TRACON
11:10AM 42.1400 -87.6664 332° Northwest 178 205 4,000 -60 Descending Chicago Center
11:11AM 42.1431 -87.7169 275° West 153 176 4,000 -60 Level Chicago Center
11:12AM 42.1106 -87.7692 230° Southwest 152 175 3,900 -480 Descending Chicago Center
11:13AM 42.0786 -87.8075 222° Southwest 153 176 3,100 -900 Descending Chicago Center
11:14AM 42.0333 -87.8500 215° Southwest 133 153 2,000 -900 Descending Chicago TRACON
11:15AM 42.0167 -87.8833 236° Southwest 124 143 1,300 -720 Descending Chicago TRACON
11:17AM 41.9817 -87.9067 228° Southwest  Level Estimated